sensor_id;sensor_type;location;lat;lon;timestamp;P1;durP1;ratioP1;P2;durP2;ratioP2
4829;SDS011;2429;52.586;14.322;2023-12-20T00:02:49;10.27;;;6.72;;
4829;SDS011;2429;52.586;14.322;2023-12-20T00:07:53;9.43;;;6.35;;
4829;SDS011;2429;52.586;14.322;2023-12-20T00:12:57;9.23;;;6.75;;
4829;SDS011;2429;52.586;14.322;2023-12-20T00:18:02;10.13;;;6.57;;
4829;SDS011;2429;52.586;14.322;2023-12-20T00:23:06;9.85;;;6.32;;
4829;SDS011;2429;52.586;14.322;2023-12-20T00:28:09;9.07;;;6.30;;
4829;SDS011;2429;52.586;14.322;2023-12-20T00:33:15;10.40;;;6.78;;
4829;SDS011;2429;52.586;14.322;2023-12-20T00:38:18;8.52;;;6.65;;
4829;SDS011;2429;52.586;14.322;2023-12-20T00:43:22;9.25;;;6.15;;
4829;SDS011;2429;52.586;14.322;2023-12-20T00:48:27;9.35;;;5.63;;
4829;SDS011;2429;52.586;14.322;2023-12-20T00:53:32;9.43;;;7.18;;
4829;SDS011;2429;52.586;14.322;2023-12-20T00:58:35;9.35;;;5.80;;
4829;SDS011;2429;52.586;14.322;2023-12-20T01:03:40;9.35;;;6.28;;
4829;SDS011;2429;52.586;14.322;2023-12-20T01:08:44;8.18;;;5.47;;
4829;SDS011;2429;52.586;14.322;2023-12-20T01:13:48;8.48;;;6.28;;
4829;SDS011;2429;52.586;14.322;2023-12-20T01:18:53;8.02;;;5.88;;
4829;SDS011;2429;52.586;14.322;2023-12-20T01:23:56;8.48;;;5.78;;
4829;SDS011;2429;52.586;14.322;2023-12-20T01:29:00;6.05;;;4.25;;
4829;SDS011;2429;52.586;14.322;2023-12-20T01:34:05;9.18;;;5.72;;
4829;SDS011;2429;52.586;14.322;2023-12-20T01:39:08;7.28;;;5.10;;
4829;SDS011;2429;52.586;14.322;2023-12-20T01:44:26;5.72;;;5.00;;
4829;SDS011;2429;52.586;14.322;2023-12-20T01:49:31;7.40;;;5.15;;
4829;SDS011;2429;52.586;14.322;2023-12-20T01:54:34;6.38;;;5.35;;
4829;SDS011;2429;52.586;14.322;2023-12-20T01:59:38;5.80;;;5.07;;
4829;SDS011;2429;52.586;14.322;2023-12-20T02:04:44;7.05;;;4.80;;
4829;SDS011;2429;52.586;14.322;2023-12-20T02:09:49;6.38;;;4.43;;
4829;SDS011;2429;52.586;14.322;2023-12-20T02:19:58;5.75;;;4.53;;
4829;SDS011;2429;52.586;14.322;2023-12-20T02:25:04;4.90;;;3.35;;
4829;SDS011;2429;52.586;14.322;2023-12-20T02:30:08;5.35;;;4.13;;
4829;SDS011;2429;52.586;14.322;2023-12-20T02:35:13;4.95;;;4.05;;
4829;SDS011;2429;52.586;14.322;2023-12-20T02:40:18;4.30;;;3.83;;
4829;SDS011;2429;52.586;14.322;2023-12-20T02:45:22;4.43;;;3.55;;
4829;SDS011;2429;52.586;14.322;2023-12-20T02:50:25;4.57;;;4.05;;
4829;SDS011;2429;52.586;14.322;2023-12-20T02:55:30;4.28;;;3.72;;
4829;SDS011;2429;52.586;14.322;2023-12-20T03:00:34;4.95;;;4.35;;
4829;SDS011;2429;52.586;14.322;2023-12-20T03:05:37;4.97;;;3.63;;
4829;SDS011;2429;52.586;14.322;2023-12-20T03:10:42;5.45;;;4.20;;
4829;SDS011;2429;52.586;14.322;2023-12-20T03:15:46;5.35;;;4.45;;
4829;SDS011;2429;52.586;14.322;2023-12-20T03:20:49;6.47;;;4.88;;
4829;SDS011;2429;52.586;14.322;2023-12-20T03:25:54;5.97;;;4.30;;
4829;SDS011;2429;52.586;14.322;2023-12-20T03:30:58;7.93;;;4.53;;
4829;SDS011;2429;52.586;14.322;2023-12-20T03:36:01;5.47;;;4.90;;
4829;SDS011;2429;52.586;14.322;2023-12-20T03:41:06;6.20;;;4.00;;
4829;SDS011;2429;52.586;14.322;2023-12-20T03:46:10;5.47;;;3.97;;
4829;SDS011;2429;52.586;14.322;2023-12-20T03:51:13;5.47;;;3.92;;
4829;SDS011;2429;52.586;14.322;2023-12-20T03:56:18;5.38;;;3.85;;
4829;SDS011;2429;52.586;14.322;2023-12-20T04:01:22;4.53;;;3.60;;
4829;SDS011;2429;52.586;14.322;2023-12-20T04:06:25;4.35;;;3.35;;
4829;SDS011;2429;52.586;14.322;2023-12-20T04:11:31;3.72;;;2.60;;
4829;SDS011;2429;52.586;14.322;2023-12-20T04:16:35;4.50;;;3.33;;
4829;SDS011;2429;52.586;14.322;2023-12-20T04:21:38;6.28;;;3.75;;
4829;SDS011;2429;52.586;14.322;2023-12-20T04:26:43;4.32;;;3.47;;
4829;SDS011;2429;52.586;14.322;2023-12-20T04:31:47;5.80;;;4.03;;
4829;SDS011;2429;52.586;14.322;2023-12-20T04:36:51;4.72;;;3.25;;
4829;SDS011;2429;52.586;14.322;2023-12-20T04:41:57;5.60;;;3.78;;
4829;SDS011;2429;52.586;14.322;2023-12-20T04:47:00;5.43;;;3.38;;
4829;SDS011;2429;52.586;14.322;2023-12-20T04:52:05;5.82;;;4.18;;
4829;SDS011;2429;52.586;14.322;2023-12-20T04:57:10;6.13;;;3.30;;
4829;SDS011;2429;52.586;14.322;2023-12-20T05:02:14;6.15;;;3.72;;
4829;SDS011;2429;52.586;14.322;2023-12-20T05:07:18;7.60;;;4.18;;
4829;SDS011;2429;52.586;14.322;2023-12-20T05:12:22;6.47;;;5.10;;
4829;SDS011;2429;52.586;14.322;2023-12-20T05:17:26;5.45;;;3.10;;
4829;SDS011;2429;52.586;14.322;2023-12-20T05:22:30;5.68;;;3.40;;
4829;SDS011;2429;52.586;14.322;2023-12-20T05:27:35;6.35;;;3.50;;
4829;SDS011;2429;52.586;14.322;2023-12-20T05:32:38;4.88;;;3.28;;
4829;SDS011;2429;52.586;14.322;2023-12-20T05:37:42;6.53;;;3.15;;
4829;SDS011;2429;52.586;14.322;2023-12-20T05:42:47;6.45;;;3.53;;
4829;SDS011;2429;52.586;14.322;2023-12-20T05:47:51;5.57;;;3.65;;
4829;SDS011;2429;52.586;14.322;2023-12-20T05:52:54;4.85;;;2.75;;
4829;SDS011;2429;52.586;14.322;2023-12-20T05:57:59;5.10;;;2.83;;
4829;SDS011;2429;52.586;14.322;2023-12-20T06:03:03;7.13;;;3.20;;
4829;SDS011;2429;52.586;14.322;2023-12-20T06:13:12;8.43;;;2.75;;
4829;SDS011;2429;52.586;14.322;2023-12-20T06:18:16;5.90;;;2.42;;
4829;SDS011;2429;52.586;14.322;2023-12-20T06:23:19;7.43;;;3.20;;
4829;SDS011;2429;52.586;14.322;2023-12-20T06:28:24;3.80;;;3.13;;
4829;SDS011;2429;52.586;14.322;2023-12-20T06:33:28;7.47;;;3.85;;
4829;SDS011;2429;52.586;14.322;2023-12-20T06:38:32;5.85;;;2.78;;
4829;SDS011;2429;52.586;14.322;2023-12-20T06:43:37;6.90;;;3.20;;
4829;SDS011;2429;52.586;14.322;2023-12-20T06:48:50;9.30;;;2.97;;
4829;SDS011;2429;52.586;14.322;2023-12-20T06:53:54;5.57;;;3.03;;
4829;SDS011;2429;52.586;14.322;2023-12-20T06:58:59;6.00;;;2.85;;
4829;SDS011;2429;52.586;14.322;2023-12-20T07:04:03;8.77;;;3.28;;
4829;SDS011;2429;52.586;14.322;2023-12-20T07:09:06;7.53;;;2.45;;
4829;SDS011;2429;52.586;14.322;2023-12-20T07:14:11;5.93;;;3.10;;
4829;SDS011;2429;52.586;14.322;2023-12-20T07:19:15;6.05;;;3.22;;
4829;SDS011;2429;52.586;14.322;2023-12-20T07:24:18;7.57;;;2.75;;
4829;SDS011;2429;52.586;14.322;2023-12-20T07:29:23;10.02;;;3.38;;
4829;SDS011;2429;52.586;14.322;2023-12-20T07:34:27;5.63;;;3.25;;
4829;SDS011;2429;52.586;14.322;2023-12-20T07:39:31;6.07;;;2.92;;
4829;SDS011;2429;52.586;14.322;2023-12-20T07:44:36;7.47;;;3.20;;
4829;SDS011;2429;52.586;14.322;2023-12-20T07:49:39;6.43;;;3.40;;
4829;SDS011;2429;52.586;14.322;2023-12-20T07:54:43;7.00;;;4.03;;
4829;SDS011;2429;52.586;14.322;2023-12-20T07:59:48;4.60;;;2.53;;
4829;SDS011;2429;52.586;14.322;2023-12-20T08:04:51;12.13;;;3.03;;
4829;SDS011;2429;52.586;14.322;2023-12-20T08:09:55;7.72;;;3.38;;
4829;SDS011;2429;52.586;14.322;2023-12-20T08:15:01;6.68;;;2.92;;
4829;SDS011;2429;52.586;14.322;2023-12-20T08:20:06;6.43;;;3.47;;
4829;SDS011;2429;52.586;14.322;2023-12-20T08:25:10;6.78;;;2.85;;
4829;SDS011;2429;52.586;14.322;2023-12-20T08:30:15;5.43;;;3.58;;
4829;SDS011;2429;52.586;14.322;2023-12-20T08:35:22;6.70;;;2.97;;
4829;SDS011;2429;52.586;14.322;2023-12-20T08:40:26;6.20;;;3.40;;
4829;SDS011;2429;52.586;14.322;2023-12-20T08:45:31;8.57;;;3.45;;
4829;SDS011;2429;52.586;14.322;2023-12-20T08:50:34;5.93;;;3.40;;
4829;SDS011;2429;52.586;14.322;2023-12-20T08:55:38;6.43;;;3.65;;
4829;SDS011;2429;52.586;14.322;2023-12-20T09:00:43;7.10;;;3.47;;
4829;SDS011;2429;52.586;14.322;2023-12-20T09:05:48;7.30;;;2.50;;
4829;SDS011;2429;52.586;14.322;2023-12-20T09:10:51;16.27;;;3.33;;
4829;SDS011;2429;52.586;14.322;2023-12-20T09:15:57;8.10;;;2.85;;
4829;SDS011;2429;52.586;14.322;2023-12-20T09:21:01;6.75;;;2.67;;
4829;SDS011;2429;52.586;14.322;2023-12-20T09:26:05;3.35;;;2.45;;
4829;SDS011;2429;52.586;14.322;2023-12-20T09:31:10;6.28;;;2.67;;
4829;SDS011;2429;52.586;14.322;2023-12-20T09:36:14;6.82;;;4.05;;
4829;SDS011;2429;52.586;14.322;2023-12-20T09:41:17;7.32;;;2.38;;
4829;SDS011;2429;52.586;14.322;2023-12-20T09:46:23;8.30;;;3.25;;
4829;SDS011;2429;52.586;14.322;2023-12-20T09:51:32;5.82;;;3.03;;
4829;SDS011;2429;52.586;14.322;2023-12-20T09:56:37;8.98;;;3.15;;
4829;SDS011;2429;52.586;14.322;2023-12-20T10:01:42;7.93;;;2.58;;
4829;SDS011;2429;52.586;14.322;2023-12-20T10:06:46;6.40;;;3.13;;
4829;SDS011;2429;52.586;14.322;2023-12-20T10:11:50;12.25;;;4.22;;
4829;SDS011;2429;52.586;14.322;2023-12-20T10:17:03;4.28;;;2.80;;
4829;SDS011;2429;52.586;14.322;2023-12-20T10:22:07;6.88;;;2.78;;
4829;SDS011;2429;52.586;14.322;2023-12-20T10:27:11;6.18;;;2.63;;
4829;SDS011;2429;52.586;14.322;2023-12-20T10:32:25;5.68;;;2.83;;
4829;SDS011;2429;52.586;14.322;2023-12-20T10:37:30;4.55;;;2.22;;
4829;SDS011;2429;52.586;14.322;2023-12-20T10:42:34;7.43;;;3.15;;
4829;SDS011;2429;52.586;14.322;2023-12-20T10:47:40;5.93;;;2.97;;
4829;SDS011;2429;52.586;14.322;2023-12-20T10:52:46;10.15;;;3.38;;
4829;SDS011;2429;52.586;14.322;2023-12-20T11:02:56;8.77;;;4.07;;
4829;SDS011;2429;52.586;14.322;2023-12-20T11:08:06;5.32;;;2.75;;
4829;SDS011;2429;52.586;14.322;2023-12-20T11:13:22;9.05;;;3.55;;
4829;SDS011;2429;52.586;14.322;2023-12-20T11:18:33;6.03;;;3.95;;
4829;SDS011;2429;52.586;14.322;2023-12-20T11:23:37;6.22;;;4.38;;
4829;SDS011;2429;52.586;14.322;2023-12-20T11:28:41;6.88;;;3.78;;
4829;SDS011;2429;52.586;14.322;2023-12-20T11:33:46;5.80;;;3.58;;
4829;SDS011;2429;52.586;14.322;2023-12-20T11:38:53;6.35;;;3.00;;
4829;SDS011;2429;52.586;14.322;2023-12-20T11:44:00;6.18;;;2.75;;
4829;SDS011;2429;52.586;14.322;2023-12-20T11:49:06;5.45;;;2.58;;
4829;SDS011;2429;52.586;14.322;2023-12-20T11:54:09;4.53;;;3.20;;
4829;SDS011;2429;52.586;14.322;2023-12-20T11:59:13;5.75;;;2.88;;
4829;SDS011;2429;52.586;14.322;2023-12-20T12:04:26;5.40;;;2.95;;
4829;SDS011;2429;52.586;14.322;2023-12-20T12:09:30;7.22;;;3.33;;
4829;SDS011;2429;52.586;14.322;2023-12-20T12:14:34;5.93;;;2.35;;
4829;SDS011;2429;52.586;14.322;2023-12-20T12:19:40;6.75;;;3.13;;
4829;SDS011;2429;52.586;14.322;2023-12-20T12:24:45;10.63;;;3.13;;
4829;SDS011;2429;52.586;14.322;2023-12-20T12:30:02;6.78;;;3.00;;
4829;SDS011;2429;52.586;14.322;2023-12-20T12:35:11;8.05;;;3.35;;
4829;SDS011;2429;52.586;14.322;2023-12-20T12:40:14;5.95;;;2.50;;
4829;SDS011;2429;52.586;14.322;2023-12-20T12:45:19;4.55;;;2.70;;
4829;SDS011;2429;52.586;14.322;2023-12-20T12:50:24;5.30;;;2.83;;
4829;SDS011;2429;52.586;14.322;2023-12-20T12:55:29;7.70;;;3.00;;
4829;SDS011;2429;52.586;14.322;2023-12-20T13:00:33;7.00;;;3.92;;
4829;SDS011;2429;52.586;14.322;2023-12-20T13:05:38;3.88;;;2.92;;
4829;SDS011;2429;52.586;14.322;2023-12-20T13:10:46;6.03;;;2.58;;
4829;SDS011;2429;52.586;14.322;2023-12-20T13:15:50;4.53;;;3.55;;
4829;SDS011;2429;52.586;14.322;2023-12-20T13:20:58;5.63;;;3.25;;
4829;SDS011;2429;52.586;14.322;2023-12-20T13:26:01;5.72;;;3.17;;
4829;SDS011;2429;52.586;14.322;2023-12-20T13:31:06;3.50;;;2.80;;
4829;SDS011;2429;52.586;14.322;2023-12-20T13:36:11;5.45;;;2.38;;
4829;SDS011;2429;52.586;14.322;2023-12-20T13:41:15;4.78;;;3.75;;
4829;SDS011;2429;52.586;14.322;2023-12-20T13:46:18;5.20;;;3.00;;
4829;SDS011;2429;52.586;14.322;2023-12-20T13:51:23;7.07;;;3.10;;
4829;SDS011;2429;52.586;14.322;2023-12-20T13:56:27;7.20;;;3.65;;
4829;SDS011;2429;52.586;14.322;2023-12-20T14:01:30;5.32;;;2.67;;
4829;SDS011;2429;52.586;14.322;2023-12-20T14:06:36;3.03;;;2.00;;
4829;SDS011;2429;52.586;14.322;2023-12-20T14:11:40;2.08;;;1.98;;
4829;SDS011;2429;52.586;14.322;2023-12-20T14:16:45;2.10;;;2.00;;
4829;SDS011;2429;52.586;14.322;2023-12-20T14:21:50;2.90;;;1.60;;
4829;SDS011;2429;52.586;14.322;2023-12-20T14:26:53;2.00;;;1.85;;
4829;SDS011;2429;52.586;14.322;2023-12-20T14:31:57;2.92;;;2.13;;
4829;SDS011;2429;52.586;14.322;2023-12-20T14:37:04;2.70;;;2.33;;
4829;SDS011;2429;52.586;14.322;2023-12-20T14:42:08;4.35;;;2.30;;
4829;SDS011;2429;52.586;14.322;2023-12-20T14:47:15;3.13;;;2.53;;
4829;SDS011;2429;52.586;14.322;2023-12-20T14:52:20;3.08;;;2.88;;
4829;SDS011;2429;52.586;14.322;2023-12-20T14:57:25;2.70;;;2.50;;
4829;SDS011;2429;52.586;14.322;2023-12-20T15:02:29;2.88;;;2.47;;
4829;SDS011;2429;52.586;14.322;2023-12-20T15:07:34;3.58;;;2.33;;
4829;SDS011;2429;52.586;14.322;2023-12-20T15:12:39;5.25;;;3.28;;
4829;SDS011;2429;52.586;14.322;2023-12-20T15:17:42;3.88;;;2.58;;
4829;SDS011;2429;52.586;14.322;2023-12-20T15:22:47;2.67;;;2.25;;
4829;SDS011;2429;52.586;14.322;2023-12-20T15:27:51;3.75;;;2.53;;
4829;SDS011;2429;52.586;14.322;2023-12-20T15:32:55;3.70;;;2.05;;
4829;SDS011;2429;52.586;14.322;2023-12-20T15:38:01;2.75;;;1.15;;
4829;SDS011;2429;52.586;14.322;2023-12-20T15:43:06;2.30;;;1.95;;
4829;SDS011;2429;52.586;14.322;2023-12-20T15:48:10;3.60;;;2.30;;
4829;SDS011;2429;52.586;14.322;2023-12-20T15:53:20;2.10;;;1.58;;
4829;SDS011;2429;52.586;14.322;2023-12-20T15:58:24;3.13;;;1.63;;
4829;SDS011;2429;52.586;14.322;2023-12-20T16:03:28;3.92;;;1.95;;
4829;SDS011;2429;52.586;14.322;2023-12-20T16:08:41;2.83;;;2.00;;
4829;SDS011;2429;52.586;14.322;2023-12-20T16:13:44;4.63;;;2.50;;
4829;SDS011;2429;52.586;14.322;2023-12-20T16:18:48;5.82;;;1.70;;
4829;SDS011;2429;52.586;14.322;2023-12-20T16:23:53;5.15;;;2.40;;
4829;SDS011;2429;52.586;14.322;2023-12-20T16:28:57;2.30;;;2.10;;
4829;SDS011;2429;52.586;14.322;2023-12-20T16:34:01;3.63;;;2.35;;
4829;SDS011;2429;52.586;14.322;2023-12-20T16:39:10;2.75;;;2.35;;
4829;SDS011;2429;52.586;14.322;2023-12-20T16:44:14;3.45;;;2.42;;
4829;SDS011;2429;52.586;14.322;2023-12-20T16:49:18;2.72;;;2.38;;
4829;SDS011;2429;52.586;14.322;2023-12-20T16:54:23;6.97;;;3.00;;
4829;SDS011;2429;52.586;14.322;2023-12-20T16:59:27;6.18;;;2.03;;
4829;SDS011;2429;52.586;14.322;2023-12-20T17:04:30;3.42;;;2.85;;
4829;SDS011;2429;52.586;14.322;2023-12-20T17:14:40;6.00;;;2.53;;
4829;SDS011;2429;52.586;14.322;2023-12-20T17:19:44;5.68;;;2.20;;
4829;SDS011;2429;52.586;14.322;2023-12-20T17:24:49;5.07;;;2.58;;
4829;SDS011;2429;52.586;14.322;2023-12-20T17:29:53;6.30;;;3.20;;
4829;SDS011;2429;52.586;14.322;2023-12-20T17:34:57;8.77;;;3.28;;
4829;SDS011;2429;52.586;14.322;2023-12-20T17:40:02;4.07;;;2.53;;
4829;SDS011;2429;52.586;14.322;2023-12-20T17:45:07;13.23;;;3.95;;
4829;SDS011;2429;52.586;14.322;2023-12-20T17:50:11;4.78;;;2.22;;
4829;SDS011;2429;52.586;14.322;2023-12-20T17:55:16;5.13;;;2.78;;
4829;SDS011;2429;52.586;14.322;2023-12-20T18:00:20;5.30;;;2.75;;
4829;SDS011;2429;52.586;14.322;2023-12-20T18:05:29;4.47;;;1.90;;
4829;SDS011;2429;52.586;14.322;2023-12-20T18:10:34;5.28;;;3.42;;
4829;SDS011;2429;52.586;14.322;2023-12-20T18:15:38;9.02;;;3.30;;
4829;SDS011;2429;52.586;14.322;2023-12-20T18:20:42;7.93;;;2.63;;
4829;SDS011;2429;52.586;14.322;2023-12-20T18:25:48;7.45;;;2.13;;
4829;SDS011;2429;52.586;14.322;2023-12-20T18:30:55;4.97;;;2.80;;
4829;SDS011;2429;52.586;14.322;2023-12-20T18:35:59;4.50;;;2.78;;
4829;SDS011;2429;52.586;14.322;2023-12-20T18:41:04;4.57;;;2.78;;
4829;SDS011;2429;52.586;14.322;2023-12-20T18:46:08;5.65;;;3.45;;
4829;SDS011;2429;52.586;14.322;2023-12-20T18:51:12;7.88;;;3.38;;
4829;SDS011;2429;52.586;14.322;2023-12-20T18:56:18;6.50;;;3.33;;
4829;SDS011;2429;52.586;14.322;2023-12-20T19:01:22;5.82;;;3.40;;
4829;SDS011;2429;52.586;14.322;2023-12-20T19:06:26;5.28;;;3.30;;
4829;SDS011;2429;52.586;14.322;2023-12-20T19:11:31;11.25;;;3.63;;
4829;SDS011;2429;52.586;14.322;2023-12-20T19:16:35;8.20;;;3.03;;
4829;SDS011;2429;52.586;14.322;2023-12-20T19:21:38;10.82;;;3.70;;
4829;SDS011;2429;52.586;14.322;2023-12-20T19:26:45;12.32;;;4.30;;
4829;SDS011;2429;52.586;14.322;2023-12-20T19:31:49;5.28;;;3.80;;
4829;SDS011;2429;52.586;14.322;2023-12-20T19:36:54;5.50;;;3.30;;
4829;SDS011;2429;52.586;14.322;2023-12-20T19:42:00;9.02;;;3.70;;
4829;SDS011;2429;52.586;14.322;2023-12-20T19:47:04;7.93;;;3.38;;
4829;SDS011;2429;52.586;14.322;2023-12-20T19:52:08;6.65;;;2.28;;
4829;SDS011;2429;52.586;14.322;2023-12-20T19:57:13;6.47;;;2.88;;
4829;SDS011;2429;52.586;14.322;2023-12-20T20:02:17;10.65;;;3.47;;
4829;SDS011;2429;52.586;14.322;2023-12-20T20:07:20;7.38;;;3.17;;
4829;SDS011;2429;52.586;14.322;2023-12-20T20:12:26;7.75;;;2.85;;
4829;SDS011;2429;52.586;14.322;2023-12-20T20:17:31;11.30;;;2.70;;
4829;SDS011;2429;52.586;14.322;2023-12-20T20:22:34;9.88;;;3.47;;
4829;SDS011;2429;52.586;14.322;2023-12-20T20:27:40;4.07;;;2.75;;
4829;SDS011;2429;52.586;14.322;2023-12-20T20:32:44;5.78;;;3.03;;
4829;SDS011;2429;52.586;14.322;2023-12-20T20:37:53;10.18;;;3.70;;
4829;SDS011;2429;52.586;14.322;2023-12-20T20:42:58;6.13;;;2.75;;
4829;SDS011;2429;52.586;14.322;2023-12-20T20:48:03;4.70;;;3.10;;
4829;SDS011;2429;52.586;14.322;2023-12-20T20:53:26;4.95;;;2.53;;
4829;SDS011;2429;52.586;14.322;2023-12-20T20:58:31;6.68;;;2.25;;
4829;SDS011;2429;52.586;14.322;2023-12-20T21:03:36;3.85;;;2.30;;
4829;SDS011;2429;52.586;14.322;2023-12-20T21:08:39;8.32;;;2.60;;
4829;SDS011;2429;52.586;14.322;2023-12-20T21:13:45;7.72;;;2.90;;
4829;SDS011;2429;52.586;14.322;2023-12-20T21:18:49;8.85;;;3.70;;
4829;SDS011;2429;52.586;14.322;2023-12-20T21:23:53;6.00;;;2.40;;
4829;SDS011;2429;52.586;14.322;2023-12-20T21:29:00;4.75;;;2.70;;
4829;SDS011;2429;52.586;14.322;2023-12-20T21:34:04;6.05;;;2.92;;
4829;SDS011;2429;52.586;14.322;2023-12-20T21:39:08;8.35;;;2.75;;
4829;SDS011;2429;52.586;14.322;2023-12-20T21:44:15;5.90;;;2.10;;
4829;SDS011;2429;52.586;14.322;2023-12-20T21:49:18;5.15;;;2.72;;
4829;SDS011;2429;52.586;14.322;2023-12-20T21:54:22;8.13;;;2.78;;
4829;SDS011;2429;52.586;14.322;2023-12-20T21:59:28;6.95;;;3.05;;
4829;SDS011;2429;52.586;14.322;2023-12-20T22:04:32;5.53;;;2.60;;
4829;SDS011;2429;52.586;14.322;2023-12-20T22:09:36;4.10;;;1.63;;
4829;SDS011;2429;52.586;14.322;2023-12-20T22:14:41;5.68;;;2.60;;
4829;SDS011;2429;52.586;14.322;2023-12-20T22:19:45;7.38;;;2.70;;
4829;SDS011;2429;52.586;14.322;2023-12-20T22:24:49;4.32;;;2.33;;
4829;SDS011;2429;52.586;14.322;2023-12-20T22:29:54;5.22;;;2.25;;
4829;SDS011;2429;52.586;14.322;2023-12-20T22:34:58;2.97;;;1.73;;
4829;SDS011;2429;52.586;14.322;2023-12-20T22:40:02;4.13;;;1.98;;
4829;SDS011;2429;52.586;14.322;2023-12-20T22:45:08;2.88;;;2.20;;
4829;SDS011;2429;52.586;14.322;2023-12-20T22:50:12;4.15;;;2.28;;
4829;SDS011;2429;52.586;14.322;2023-12-20T22:55:16;3.00;;;2.20;;
4829;SDS011;2429;52.586;14.322;2023-12-20T23:00:22;3.00;;;2.70;;
4829;SDS011;2429;52.586;14.322;2023-12-20T23:05:27;2.78;;;1.95;;
4829;SDS011;2429;52.586;14.322;2023-12-20T23:10:31;5.93;;;2.22;;
4829;SDS011;2429;52.586;14.322;2023-12-20T23:15:37;3.30;;;2.92;;
4829;SDS011;2429;52.586;14.322;2023-12-20T23:20:41;3.50;;;2.15;;
4829;SDS011;2429;52.586;14.322;2023-12-20T23:25:45;3.85;;;2.55;;
4829;SDS011;2429;52.586;14.322;2023-12-20T23:30:50;2.75;;;2.42;;
4829;SDS011;2429;52.586;14.322;2023-12-20T23:35:53;2.58;;;2.38;;
4829;SDS011;2429;52.586;14.322;2023-12-20T23:40:57;3.70;;;1.90;;
4829;SDS011;2429;52.586;14.322;2023-12-20T23:46:02;5.90;;;2.55;;
4829;SDS011;2429;52.586;14.322;2023-12-20T23:51:06;4.75;;;2.03;;
4829;SDS011;2429;52.586;14.322;2023-12-20T23:56:11;2.05;;;1.85;;
